Weather observations for the past three days for
Eagles Nest Airport
Imperial (Metric)
Date Time (edt) Wind (mph) Vis. (mi.) Weather Sky Cond. Temperature (ºF) Relative Humidity Wind Chill (°F) Heat Index (°F) Pressure Precipitation (in)
Air Dwpt 6 hour altimeter (in) sea level (mb) 1 hr 3 hr 6 hr
Max. Min.
10 08:35 SW 5 10.00 Fair CLR 64.4 47.5 54% 29.97 0.0
10 08:15 SE 3 10.00 Fair CLR 61.2 48 62% 29.97 0.0
10 07:55 Calm 10.00 Fair CLR 57.4 46.4 61.5 45.7 67% 29.97 0.0
10 07:35 SW 5 10.00 Fair CLR 60.6 45.3 57% 29.96 0.0
10 07:15 SW 3 10.00 Fair CLR 53.8 44.8 72% 29.95 0.0
10 06:55 SW 3 10.00 Fair CLR 58.1 44.2 60% 29.95 0.0
10 06:35 W 5 10.00 Fair CLR 58.5 44.1 59% 29.94 0.0
10 06:15 W 7 10.00 Fair CLR 56.1 44.6 65% 29.93 0.0
10 05:55 SW 3 10.00 Fair CLR 45.9 42.1 87% 29.93 0.0
10 05:35 Calm 10.00 Fair CLR 46.4 42.3 86% 29.92 0.0
10 05:15 W 6 10.00 Fair CLR 56.8 44.6 64% 29.91 0.0
10 04:55 SW 3 10.00 Fair CLR 47.7 43 84% 29.91 0.0
10 04:35 Calm 10.00 Fair CLR 47.3 43 85% 29.91 0.0
10 04:15 Calm 10.00 Fair CLR 46.8 42.3 84% 29.91 0.0
10 03:55 SW 3 10.00 Fair CLR 48.9 43.2 81% 29.91 0.0
10 03:35 Calm 10.00 Fair CLR 48.7 43 81% 29.91 0.0
10 03:15 Calm 10.00 Fair CLR 48.6 43.3 82% 29.91 0.0
10 02:55 Calm 10.00 Fair CLR 48.2 43.7 85% 29.89 0.0
10 02:35 Calm 10.00 Fair CLR 50.4 42.8 75% 29.89 0.0
10 02:15 Calm 10.00 Fair CLR 49.1 43.3 81% 29.89 0.0
10 01:55 Calm 10.00 Fair CLR 50.9 43.2 66 50.9 75% 29.89 0.0
10 01:35 Calm 10.00 Fair CLR 52.3 44.1 74% 29.89 0.0
10 01:15 SE 3 10.00 Fair CLR 54.5 42.3 64% 29.89 0.0
10 00:55 W 5 10.00 Fair CLR 57.9 42.6 57% 29.89 0.0
10 00:35 Calm 10.00 Fair CLR 55.8 43.3 63% 29.9 0.0
10 00:15 SW 5 10.00 Fair CLR 58.3 43 57% 29.9 0.0
09 23:55 Calm 10.00 Fair CLR 60.3 43 53% 29.9 0.0
09 23:35 W 3 10.00 Fair CLR 61.7 43.2 51% 29.9 0.0
09 23:15 SW 5 10.00 Fair CLR 61 43.9 54% 29.9 0.0
09 22:55 SW 3 10.00 Fair CLR 59.2 45.7 61% 29.89 0.0
09 22:35 SW 7 10.00 Fair CLR 57.9 46.8 67% 29.88 0.0
09 22:15 SW 3 10.00 Fair CLR 59.2 47.1 64% 29.87 0.0
09 21:55 Calm 10.00 Fair CLR 61 47.5 61% 29.86 0.0
09 21:35 SW 5 10.00 Fair CLR 63.1 47.3 56% 29.85 0.0
09 21:15 SW 5 10.00 Fair CLR 64.2 47.3 54% 29.84 0.0
09 20:55 SW 3 10.00 Fair CLR 64.4 46.9 53% 29.84 0.0
09 20:35 SW 5 10.00 Fair CLR 65.3 46.9 52% 29.83 0.0
09 20:15 SW 5 10.00 Fair CLR 65.7 46.9 51% 29.82 0.0
09 19:55 SW 3 10.00 Fair CLR 66.6 47.3 73.6 66.6 50% 29.81 0.0
09 19:35 SW 3 10.00 Partly Cloudy SCT090 68.2 47.3 47% 29.81 0.0
09 19:15 SW 6 10.00 Mostly Cloudy BKN100 69.8 47.3 45% 29.81 0.0
09 18:55 SW 9 10.00 Overcast OVC100 70.2 47.1 44% 29.8 0.0
09 18:35 SW 6 10.00 Overcast OVC100 70.7 47.3 43% 29.81 0.0
09 18:15 SW 8 10.00 Overcast OVC100 70.3 46.8 43% 29.81 0.0
09 17:55 SW 7 10.00 Overcast OVC100 70.2 47.3 44% 29.8 0.0
09 17:35 SW 8 10.00 Overcast OVC090 70.5 46.6 43% 29.8 0.0
09 17:15 SW 10 G 18 10.00 Overcast OVC090 70.9 46.4 42% 29.8 0.0
09 16:55 SW 9 10.00 Mostly Cloudy BKN090 71.2 45.9 40% 29.8 0.0
09 16:35 SW 7 G 18 10.00 Partly Cloudy SCT060 SCT080 72.3 45.9 39% 29.79 0.0
09 16:15 SW 10 G 18 10.00 Partly Cloudy SCT110 72.3 45.9 39% 29.79 0.0
09 15:55 SW 7 G 20 10.00 Partly Cloudy SCT110 72.9 46.2 39% 29.79 0.0
09 15:35 W 7 10.00 Mostly Cloudy SCT060 BKN110 73 46.2 39% 29.8 0.0
09 15:15 W 6 10.00 Overcast SCT060 SCT075 OVC110 70.3 44.2 39% 29.81 0.0
09 14:55 SW 13 G 20 10.00 Overcast SCT065 SCT075 OVC110 70.7 44.8 40% 29.81 0.0
09 14:35 S 5 10.00 Overcast BKN060 BKN075 OVC120 68.9 46 44% 29.82 0.0
09 14:15 SW 10 G 20 10.00 Mostly Cloudy SCT060 BKN090 BKN110 70.2 45 41% 29.82 0.0
09 13:55 S 9 G 20 10.00 Partly Cloudy SCT080 SCT090 SCT120 70.9 45.7 70.9 57.7 41% 29.83 0.0
09 13:35 SW 12 G 17 10.00 Mostly Cloudy SCT065 BKN075 BKN100 69.8 45.7 42% 29.84 0.0
09 13:15 W 7 G 17 10.00 Partly Cloudy SCT065 SCT075 67.6 45.5 45% 29.85 0.0
09 12:55 SW 6 G 18 10.00 Partly Cloudy SCT055 SCT075 67.5 45.9 46% 29.85 0.0
09 12:35 SW 7 G 17 10.00 Overcast BKN055 OVC075 66.9 45.7 47% 29.85 0.0
09 12:15 W 8 G 16 10.00 Mostly Cloudy BKN055 BKN065 66.4 44.8 46% 29.85 0.0
09 11:55 SW 9 G 18 10.00 Overcast OVC060 66 46 49% 29.85 0.0
09 11:35 SW 9 10.00 Mostly Cloudy BKN060 BKN080 66 45.3 47% 29.85 0.0
09 11:15 W 10 G 16 10.00 Mostly Cloudy SCT060 BKN070 64.8 44.6 48% 29.85 0.0
09 10:55 W 7 10.00 Fair CLR 65.3 46 50% 29.85 0.0
09 10:35 SW 6 10.00 Fair CLR 65.5 46.8 51% 29.85 0.0
09 10:15 Calm 10.00 Fair CLR 63.1 46.9 56% 29.85 0.0
09 09:55 S 5 10.00 Fair CLR 62.8 47.5 58% 29.86 0.0
09 09:35 SW 6 10.00 Fair CLR 61.3 46.8 59% 29.86 0.0
09 09:15 SW 3 10.00 Fair CLR 60.8 47.5 62% 29.87 0.0
09 08:55 SW 5 10.00 Fair CLR 59.9 47.1 63% 29.87 0.0
09 08:35 SW 6 10.00 Fair CLR 58.3 46.6 65% 29.88 0.0
09 08:15 Calm 10.00 Fair CLR 58.1 46.4 65% 29.88 0.0
09 07:55 Calm 10.00 Fair CLR 57.4 44.8 57.4 50.5 63% 29.88 0.0
09 07:35 Calm 10.00 Fair CLR 53.4 43.9 70% 29.88 0.0
09 07:15 Calm 10.00 Fair CLR 52 43.3 73% 29.88 0.0
09 06:55 Calm 10.00 Partly Cloudy SCT110 52.9 41.5 66% 29.87 0.0
09 06:35 Calm 10.00 Mostly Cloudy BKN110 53.8 40.5 61% 29.87 0.0
09 06:15 Calm 10.00 Overcast OVC110 54.5 39.4 57% 29.87 0.0
09 05:55 NW 5 10.00 Mostly Cloudy BKN110 54.9 39.6 57% 29.87 0.0
09 05:35 NW 3 10.00 Partly Cloudy SCT100 52.2 40.3 64% 29.87 0.0
09 05:15 Calm 10.00 Mostly Cloudy BKN110 51.8 39.2 62% 29.87 0.0
09 04:55 Calm 10.00 Partly Cloudy SCT110 50.7 38.8 64% 29.88 0.0
09 04:35 Calm 10.00 Partly Cloudy SCT100 53.8 38.5 56% 29.88 0.0
09 04:15 Calm 10.00 Overcast OVC100 53.8 38.3 56% 29.88 0.0
09 03:55 SW 3 10.00 Overcast OVC100 56.3 37.6 50% 29.88 0.0
09 03:35 Calm 10.00 Overcast OVC100 53.1 37.4 55% 29.89 0.0
09 03:15 Calm 10.00 Overcast OVC100 52.9 37.2 55% 29.89 0.0
09 02:55 Calm 10.00 Overcast OVC100 52.9 37.4 56% 29.89 0.0
09 02:35 Calm 10.00 Overcast OVC110 53.8 35.4 50% 29.91 0.0
09 02:15 W 3 10.00 Overcast OVC110 56.7 34.7 44% 29.91 0.0
09 01:55 W 3 10.00 Overcast OVC120 54.7 34.5 62.4 54.7 47% 29.91 0.0
09 01:35 Calm 10.00 Overcast OVC120 56.1 33.8 43% 29.92 0.0
09 01:15 Calm 10.00 Partly Cloudy SCT120 55.9 33.8 43% 29.91 0.0
09 00:55 S 7 10.00 Fair CLR 56.7 33.8 42% 29.91 0.0
09 00:35 S 8 10.00 Fair CLR 57.4 33.4 41% 29.91 0.0
09 00:15 S 7 10.00 Fair CLR 56.7 34 43% 29.91 0.0
08 23:55 S 5 10.00 Fair CLR 56.5 34.2 43% 29.91 0.0
08 23:35 S 5 10.00 Fair CLR 56.3 34.3 44% 29.92 0.0
08 23:15 SW 5 10.00 Fair CLR 56.5 34.7 44% 29.92 0.0
08 22:55 SW 6 10.00 Fair CLR 57.6 34.7 42% 29.93 0.0
08 22:35 S 7 10.00 Fair CLR 58.5 34.9 41% 29.94 0.0
08 22:15 S 7 10.00 Fair CLR 58.3 35.2 42% 29.93 0.0
08 21:55 S 6 10.00 Fair CLR 58.3 35.6 43% 29.92 0.0
08 21:35 S 6 10.00 Fair CLR 58.3 35.6 43% 29.92 0.0
08 21:15 S 6 10.00 Fair CLR 59.2 35.8 42% 29.91 0.0
08 20:55 S 6 10.00 Fair CLR 59.9 36.3 42% 29.91 0.0
08 20:35 SW 7 10.00 Fair CLR 60.6 36.7 41% 29.91 0.0
08 20:15 S 8 G 16 10.00 Fair CLR 61.9 36.7 39% 29.91 0.0
08 19:55 S 12 G 16 10.00 Fair CLR 62.6 37.2 69.6 62.6 39% 29.91 0.0
08 19:35 S 8 10.00 Fair CLR 63.9 37.2 37% 29.9 0.0
08 19:15 S 9 G 17 10.00 Partly Cloudy SCT095 64.8 36.9 36% 29.89 0.0
08 18:55 S 13 G 18 10.00 Mostly Cloudy BKN095 66 37 34% 29.88 0.0
08 18:35 S 7 10.00 Partly Cloudy SCT095 66 36.5 34% 29.89 0.0
08 18:15 SW 12 G 17 10.00 Partly Cloudy SCT100 67.6 32.5 27% 29.88 0.0
08 17:55 S 10 10.00 Partly Cloudy SCT100 68.7 32.7 26% 29.88 0.0
08 17:35 SW 7 10.00 Partly Cloudy SCT090 68.2 33.3 27% 29.89 0.0
08 17:15 SW 9 G 18 10.00 Mostly Cloudy BKN090 66.4 32.4 28% 29.9 0.0
08 16:55 SW 7 G 16 10.00 Partly Cloudy SCT090 67.8 32.9 27% 29.9 0.0
08 16:35 SW 6 10.00 Partly Cloudy SCT090 69.4 33.8 27% 29.9 0.0
08 16:15 SW 5 10.00 Fair CLR 68.4 33.3 27% 29.91 0.0
08 15:55 SW 9 G 17 10.00 Fair CLR 67.8 32.9 27% 29.91 0.0
08 15:35 SW 5 10.00 Fair CLR 67.3 32.7 28% 29.92 0.0
08 15:15 SW 7 10.00 Fair CLR 66.9 32.4 28% 29.93 0.0
08 14:55 SW 14 G 18 10.00 Fair CLR 67.1 33.4 29% 29.95 0.0
08 14:35 SW 9 10.00 Fair CLR 66.2 32.7 29% 29.95 0.0
08 14:15 S 7 10.00 Fair CLR 65.3 32.7 30% 29.96 0.0
08 13:55 SW 5 10.00 Fair CLR 65.5 33.1 65.8 47.7 30% 29.97 0.0
08 13:35 SW 7 G 16 10.00 Fair CLR 65.5 32.4 29% 29.98 0.0
08 13:15 W 7 10.00 Fair CLR 64 31.8 30% 29.99 0.0
08 12:55 SW 9 10.00 Fair CLR 64.4 33.4 32% 29.99 0.0
08 12:35 SW 8 G 17 10.00 Fair CLR 63 30.6 30% 30 0.0
08 12:15 W 5 10.00 Fair CLR 63.5 34.7 34% 30 0.0
08 11:55 W 8 G 16 10.00 Fair CLR 61.9 32.7 34% 30.02 0.0
08 11:35 W 6 10.00 Fair CLR 61.5 33.3 35% 30.02 0.0
08 11:15 W 3 10.00 Fair CLR 60.1 32.5 36% 30.02 0.0
08 10:55 W 5 10.00 Fair CLR 59.9 32.5 36% 30.02 0.0
08 10:35 W 5 10.00 Fair CLR 59.2 32.5 37% 30.03 0.0
08 10:15 W 5 10.00 Fair CLR 57.6 34.2 41% 30.03 0.0
08 09:55 SW 3 10.00 Fair CLR 56.3 34.3 44% 30.03 0.0
08 09:35 W 3 10.00 Fair CLR 54.1 33.3 45% 30.04 0.0
08 09:15 SW 6 10.00 Fair CLR 52.9 33.6 48% 30.04 0.0
08 08:55 SW 8 10.00 Fair CLR 51.6 33.1 49% 30.04 0.0
08 08:35 SW 6 10.00 Fair CLR 50.7 33.1 51% 30.04 0.0
08 08:15 SW 7 10.00 Fair CLR 49.1 33.1 54% 47 30.04 0.0
08 07:55 SW 5 10.00 Fair CLR 46.2 35.6 46.8 37.2 67% 45 30.03 0.0
08 07:35 SW 6 10.00 Fair CLR 46.8 32.2 57% 44 30.03 0.0
08 07:15 W 3 10.00 Fair CLR 45.5 31.8 59% 30.02 0.0
08 06:55 W 3 10.00 Fair CLR 45 31.3 59% 30.02 0.0
08 06:35 W 3 10.00 Fair CLR 44.6 31.3 60% 30 0.0
08 06:15 W 7 10.00 Fair CLR 44.6 31.1 59% 41 30 0.0
08 05:55 W 6 10.00 Fair CLR 42.6 31.6 65% 40 29.99 0.0
08 05:35 SW 5 10.00 Fair CLR 37.4 32.9 84% 34 29.98 0.0
08 05:15 Calm 10.00 Fair CLR 39 32 76% 29.98 0.0
08 04:55 SW 3 10.00 Fair CLR 45.1 30.9 58% 29.98 0.0
08 04:35 W 5 10.00 Fair CLR 45.9 30.9 56% 44 29.98 0.0
08 04:15 W 6 10.00 Fair CLR 45.5 31.3 58% 43 29.97 0.0
08 03:55 SW 3 10.00 Fair CLR 40.1 33.1 76% 29.97 0.0
08 03:35 Calm 10.00 Fair CLR 41.4 32.5 71% 29.97 0.0
08 03:15 W 3 10.00 Fair CLR 43.3 32 64% 29.97 0.0
08 02:55 SW 5 10.00 Fair CLR 42.3 33.1 70% 40 29.96 0.0
08 02:35 SW 3 10.00 Fair CLR 44.6 32 61% 29.96 0.0
08 02:15 Calm 10.00 Fair CLR 46.6 31.8 57% 29.95 0.0
08 01:55 Calm 10.00 Fair CLR 44.2 33.1 54.5 43.5 65% 29.95 0.0
08 01:35 Calm 10.00 Fair CLR 44.6 33.6 65% 29.95 0.0
08 01:15 Calm 10.00 Fair CLR 46 33.6 62% 29.95 0.0
08 00:55 Calm 10.00 Fair CLR 48.4 33.1 56% 29.94 0.0
08 00:35 Calm 10.00 Fair CLR 45.9 34.9 66% 29.93 0.0
08 00:15 Calm 10.00 Fair CLR 44.8 36.7 73% 29.93 0.0
07 23:55 Calm 10.00 Fair CLR 45.5 37.9 75% 29.92 0.0
07 23:35 Calm 10.00 Fair CLR 45.9 39 77% 29.92 0.0
07 23:15 Calm 10.00 Fair CLR 45.5 39.7 80% 29.91 0.0
07 22:55 Calm 10.00 Fair CLR 47.7 42.1 81% 29.91 0.0
07 22:35 Calm 10.00 Fair CLR 48.4 42.6 81% 29.9 0.0
07 22:15 NW 3 10.00 Fair CLR 50.9 43.7 77% 29.9 0.0
07 21:55 NW 3 10.00 Fair CLR 51.3 45.5 81% 29.89 0.0
07 21:35 NW 3 10.00 Fair CLR 50.7 46.8 86% 29.88 0.0
07 21:15 NW 3 10.00 Fair CLR 49.8 48.2 94% 29.87 0.0
07 20:55 SW 5 10.00 Partly Cloudy SCT070 SCT080 51.1 48.4 91% 29.86 0.0
07 20:35 SW 3 10.00 Mostly Cloudy SCT050 BKN070 BKN080 52.5 48.4 86% 29.86 0.0
07 20:15 SW 3 10.00 Mostly Cloudy SCT060 BKN070 53.8 49.1 84% 29.85 0.0
07 19:55 SE 3 10.00 Mostly Cloudy SCT060 BKN070 54.5 49.1 57.6 53.1 82% 29.83 0.0
07 19:35 SE 3 10.00 Partly Cloudy SCT070 55 48.9 80% 29.83 0.0
07 19:15 SE 5 10.00 Overcast OVC070 55.6 48.9 78% 29.82 0.0
07 18:55 SE 5 10.00 Overcast OVC070 55.9 49.1 78% 29.82 0.0
07 18:35 SE 6 10.00 Mostly Cloudy SCT038 SCT046 BKN070 56.5 48.7 75% 29.81 0.0
07 18:15 Calm 10.00 Partly Cloudy SCT070 56.1 48.2 75% 29.8 0.0
07 17:55 SE 5 10.00 Fair CLR 56.7 48.4 74% 29.8 0.0
07 17:35 SE 7 10.00 Mostly Cloudy BKN036 BKN042 56.5 48.7 75% 29.8 0.0
07 17:15 SE 7 10.00 Mostly Cloudy SCT018 SCT030 BKN035 56.5 49.1 76% 29.8 0.0
07 16:15 SE 6 10.00 Overcast BKN017 BKN024 OVC055 56.5 49.8 79% 29.8 0.0
07 15:55 SE 5 10.00 Overcast SCT016 SCT021 OVC055 56.1 49.5 78% 29.81 0.0
07 15:35 Calm 10.00 Overcast SCT016 BKN055 OVC070 56.3 48.7 76% 29.82 0.0
07 15:15 SE 3 10.00 Overcast SCT014 SCT046 OVC070 55.2 48.7 79% 29.83 0.0
07 14:55 SE 5 10.00 Overcast SCT010 BKN014 OVC070 54.3 51.1 89% 29.84 0.0
07 14:35 SE 5 10.00 Overcast OVC012 53.1 49.5 88% 29.84 0.0
07 14:15 S 3 10.00 Overcast BKN015 BKN023 OVC060 53.6 48.9 84% 29.84 0.0
07 13:55 Calm 10.00 Overcast SCT017 SCT034 OVC060 54 47.1 54 51.1 78% 29.84 0.0 0.03
07 13:35 Calm 10.00 Overcast SCT019 BKN034 OVC050 53.2 46.6 78% 29.85 0.0
07 13:15 Calm 10.00 Overcast SCT014 SCT021 OVC050 53.2 46.9 79% 29.86 0.0
07 12:55 Calm 10.00 Overcast SCT014 BKN021 OVC050 52.7 46.9 81% 29.87 0.0
07 12:35 Calm 10.00 Overcast SCT016 OVC021 52 46.8 82% 29.88 0.0
07 12:15 N 5 10.00 Overcast BKN016 OVC021 52 47.1 84% 29.88 0.0
07 11:55 E 5 10.00 Overcast SCT014 BKN023 OVC034 52.9 47.1 81% 29.89 0.0 0.02
07 11:35 NE 5 10.00 Overcast SCT020 BKN026 OVC034 51.6 46.8 84% 29.89 0.0 0.02
07 11:15 N 3 5.00 Overcast SCT017 BKN024 OVC030 51.3 47.3 86% 29.9 0.0 0.01
07 10:55 NE 3 10.00 Overcast OVC024 51.1 46.4 84% 29.89 0.0
07 10:35 NE 3 10.00 Overcast OVC024 51.3 46.2 83% 29.9 0.0
07 10:15 N 5 10.00 Overcast OVC024 51.8 45.9 80% 29.91 0.0
07 09:55 N 3 10.00 Overcast OVC024 52 46.6 82% 29.91 0.0
07 09:35 N 5 10.00 Overcast OVC024 52.2 46.6 81% 29.91 0.0
07 09:15 N 5 10.00 Overcast OVC022 52.3 46.8 81% 29.91 0.0
Date Time (edt) Wind (mph) Vis. (mi.) Weather Sky Cond. Air Dwpt Max. Min. Relative Humidity Wind Chill (°F) Heat Index (°F) altimeter (in) sea level (mb) 1 hr 3 hr 6 hr
6 hour
Temperature (ºF) Pressure Precipitation (in)